createdAt,value
2022-12-08T00:01:05.007Z,48.10
2022-12-08T00:04:12.553Z,48.00
2022-12-08T00:07:19.886Z,45.00
2022-12-08T00:10:48.333Z,54.00
2022-12-08T00:13:31.820Z,49.30
2022-12-08T00:16:39.063Z,54.90
2022-12-08T00:19:46.174Z,51.10
2022-12-08T00:22:53.668Z,47.10
2022-12-08T00:26:00.513Z,52.70
2022-12-08T00:29:10.864Z,44.80
2022-12-08T00:32:09.875Z,52.80
2022-12-08T00:35:16.682Z,45.60
2022-12-08T00:38:24.073Z,47.50
2022-12-08T00:41:31.324Z,58.30
2022-12-08T00:44:38.544Z,50.20
2022-12-08T00:47:46.081Z,49.80
2022-12-08T00:50:53.326Z,54.60
2022-12-08T00:54:00.480Z,49.40
2022-12-08T00:57:07.723Z,58.70
2022-12-08T01:00:14.965Z,55.30
2022-12-08T01:03:22.243Z,53.50
2022-12-08T01:06:29.515Z,59.80
2022-12-08T01:09:36.997Z,46.40
2022-12-08T01:12:44.175Z,48.40
2022-12-08T01:15:51.256Z,48.10
2022-12-08T01:18:58.836Z,45.50
2022-12-08T01:22:05.974Z,54.10
2022-12-08T01:25:13.170Z,49.20
2022-12-08T01:28:20.639Z,58.40
2022-12-08T01:31:27.625Z,53.40
2022-12-08T01:34:29.991Z,45.00
2022-12-08T01:37:37.008Z,47.80
2022-12-08T01:40:43.908Z,44.40
2022-12-08T01:43:51.582Z,53.30
2022-12-08T01:46:58.960Z,50.30
2022-12-08T01:50:06.080Z,50.00
2022-12-08T01:53:13.638Z,50.50
2022-12-08T01:56:20.932Z,47.10
2022-12-08T01:59:28.100Z,48.60
2022-12-08T02:02:35.595Z,44.70
2022-12-08T02:05:42.822Z,50.10
2022-12-08T02:08:49.972Z,44.60
2022-12-08T02:11:57.533Z,43.70
2022-12-08T02:15:05.628Z,46.00
2022-12-08T02:18:12.853Z,42.50
2022-12-08T02:21:20.085Z,44.40
2022-12-08T02:24:28.127Z,48.00
2022-12-08T02:27:35.264Z,44.40
2022-12-08T02:30:42.466Z,40.60
2022-12-08T02:33:50.026Z,40.60
2022-12-08T02:36:57.442Z,37.50
2022-12-08T02:40:04.800Z,36.30
2022-12-08T02:43:12.324Z,28.40
2022-12-08T02:46:19.251Z,35.00
2022-12-08T02:49:26.658Z,28.90
2022-12-08T02:52:34.057Z,29.00
2022-12-08T02:55:40.818Z,31.80
2022-12-08T02:58:48.250Z,31.10
2022-12-08T03:01:55.027Z,36.50
2022-12-08T03:05:02.545Z,36.60
2022-12-08T03:08:10.275Z,34.10
2022-12-08T03:11:17.183Z,33.70
2022-12-08T03:14:25.111Z,29.70
2022-12-08T03:17:32.604Z,35.00
2022-12-08T03:20:39.541Z,31.80
2022-12-08T03:23:46.970Z,34.40
2022-12-08T03:26:54.082Z,26.40
2022-12-08T03:30:01.339Z,27.80
2022-12-08T03:33:08.952Z,34.20
2022-12-08T03:36:16.044Z,27.00
2022-12-08T03:39:23.402Z,29.50
2022-12-08T03:42:30.867Z,31.70
2022-12-08T03:45:38.144Z,31.20
2022-12-08T03:48:45.134Z,27.10
2022-12-08T03:51:52.161Z,25.00
2022-12-08T03:54:59.936Z,28.40
2022-12-08T03:58:07.073Z,31.10
2022-12-08T04:01:14.316Z,32.00
2022-12-08T04:04:21.775Z,26.10
2022-12-08T04:07:29.253Z,26.90
2022-12-08T04:10:36.426Z,21.80
2022-12-08T04:13:43.987Z,24.50
2022-12-08T04:16:51.028Z,26.60
2022-12-08T04:19:58.647Z,23.30
2022-12-08T04:23:06.108Z,21.50
2022-12-08T04:26:13.300Z,24.80
2022-12-08T04:29:20.520Z,28.00
2022-12-08T04:32:28.462Z,31.80
2022-12-08T04:35:35.344Z,27.30
2022-12-08T04:38:42.573Z,29.90
2022-12-08T04:41:50.074Z,34.40
2022-12-08T04:44:56.951Z,33.10
2022-12-08T04:48:04.374Z,39.90
2022-12-08T04:51:11.562Z,37.80
2022-12-08T04:54:18.743Z,38.40
2022-12-08T04:57:26.214Z,43.60
2022-12-08T05:00:33.446Z,42.80
2022-12-08T05:03:40.604Z,37.10
2022-12-08T05:06:48.016Z,37.00
2022-12-08T05:09:55.205Z,37.50
2022-12-08T05:13:02.407Z,33.30
2022-12-08T05:16:09.686Z,33.40
2022-12-08T05:19:17.202Z,32.00
2022-12-08T05:22:24.508Z,36.60
2022-12-08T05:25:31.627Z,36.10
2022-12-08T05:28:42.432Z,36.60
2022-12-08T05:31:39.629Z,38.50
2022-12-08T05:34:46.688Z,36.30
2022-12-08T05:37:53.724Z,37.40
2022-12-08T05:41:00.512Z,35.00
2022-12-08T05:44:07.904Z,40.60
2022-12-08T05:47:15.424Z,35.10
2022-12-08T05:50:22.151Z,38.10
2022-12-08T05:53:29.641Z,38.70
2022-12-08T05:56:37.002Z,47.10
2022-12-08T05:59:43.893Z,42.70
2022-12-08T06:02:51.502Z,40.20
2022-12-08T06:05:58.796Z,40.80
2022-12-08T06:09:05.934Z,51.20
2022-12-08T06:12:13.516Z,43.80
2022-12-08T06:15:20.354Z,50.40
2022-12-08T06:18:32.617Z,54.20
2022-12-08T06:21:29.830Z,54.10
2022-12-08T06:24:37.421Z,54.80
2022-12-08T06:27:44.778Z,56.30
2022-12-08T06:30:52.310Z,60.30
2022-12-08T06:33:59.134Z,60.80
2022-12-08T06:37:06.700Z,55.40
2022-12-08T06:40:13.716Z,55.80
2022-12-08T06:43:20.803Z,48.80
2022-12-08T06:46:28.632Z,49.60
2022-12-08T06:49:35.644Z,45.10
2022-12-08T06:52:51.741Z,44.80
2022-12-08T06:56:02.836Z,40.40
2022-12-08T06:58:52.948Z,43.20
2022-12-08T07:02:00.640Z,43.20
2022-12-08T07:05:07.654Z,38.30
2022-12-08T07:08:15.165Z,39.50
2022-12-08T07:11:22.892Z,39.20
2022-12-08T07:14:30.069Z,35.90
2022-12-08T07:17:37.098Z,39.20
2022-12-08T07:20:43.782Z,38.80
2022-12-08T07:23:55.914Z,36.00
2022-12-08T07:26:53.834Z,34.80
2022-12-08T07:30:00.661Z,31.80
2022-12-08T07:33:08.123Z,36.80
2022-12-08T07:36:15.312Z,39.00
2022-12-08T07:39:22.153Z,38.00
2022-12-08T07:42:29.595Z,41.60
2022-12-08T07:45:36.861Z,44.50
2022-12-08T07:48:43.772Z,40.60
2022-12-08T07:51:51.130Z,44.70
2022-12-08T07:54:58.062Z,52.40
2022-12-08T07:58:05.717Z,49.30
2022-12-08T08:01:13.362Z,51.50
2022-12-08T08:04:20.300Z,49.40
2022-12-08T08:07:27.730Z,52.20
2022-12-08T08:10:35.082Z,43.90
2022-12-08T08:13:42.045Z,48.40
2022-12-08T08:16:49.679Z,46.90
2022-12-08T08:19:57.163Z,47.30
2022-12-08T08:23:03.922Z,45.60
2022-12-08T08:26:11.316Z,43.90
2022-12-08T08:29:19.007Z,42.90
2022-12-08T08:32:25.899Z,43.70
2022-12-08T08:35:33.660Z,45.50
2022-12-08T08:38:41.145Z,33.00
2022-12-08T08:41:48.397Z,35.50
2022-12-08T08:44:56.019Z,33.40
2022-12-08T08:48:03.301Z,27.40
2022-12-08T08:51:10.571Z,27.60
2022-12-08T08:54:17.841Z,27.30
2022-12-08T08:57:26.170Z,29.20
2022-12-08T09:00:33.743Z,31.00
2022-12-08T09:03:40.662Z,29.60
2022-12-08T09:06:48.245Z,33.50
2022-12-08T09:10:00.015Z,29.40
2022-12-08T09:12:58.244Z,32.60
2022-12-08T09:16:05.832Z,28.20
2022-12-08T09:19:12.594Z,30.30
2022-12-08T09:22:20.250Z,29.50
2022-12-08T09:25:27.659Z,33.30
2022-12-08T09:28:34.582Z,32.10
2022-12-08T09:31:42.233Z,31.50
2022-12-08T09:34:52.283Z,21.40
2022-12-08T09:37:59.214Z,21.50
2022-12-08T09:41:06.998Z,19.70
2022-12-08T09:44:14.453Z,18.50
2022-12-08T09:47:21.435Z,19.50
2022-12-08T09:50:29.023Z,19.30
2022-12-08T09:53:36.509Z,18.90
2022-12-08T09:56:43.945Z,22.40
2022-12-08T09:59:51.714Z,23.60
2022-12-08T10:02:58.826Z,24.40
2022-12-08T10:06:05.915Z,20.40
2022-12-08T10:09:15.209Z,23.40
2022-12-08T10:12:15.017Z,20.90
2022-12-08T10:15:22.188Z,20.60
2022-12-08T10:18:29.292Z,20.10
2022-12-08T10:21:36.809Z,21.90
2022-12-08T10:24:43.701Z,18.80
2022-12-08T10:27:51.540Z,27.00
2022-12-08T10:30:59.021Z,23.80
2022-12-08T10:34:05.858Z,24.40
2022-12-08T10:37:13.436Z,22.10
2022-12-08T10:40:20.695Z,20.00
2022-12-08T10:43:27.780Z,23.20
2022-12-08T10:46:35.328Z,22.80
2022-12-08T10:49:42.386Z,20.10
2022-12-08T10:52:49.476Z,23.10
2022-12-08T10:55:56.964Z,23.80
2022-12-08T10:59:04.586Z,22.10
2022-12-08T11:02:11.917Z,23.80
2022-12-08T11:05:19.161Z,20.20
2022-12-08T11:08:26.854Z,22.60
2022-12-08T11:11:34.058Z,21.00
2022-12-08T11:14:41.199Z,21.80
2022-12-08T11:17:51.035Z,20.90
2022-12-08T11:20:49.341Z,16.60
2022-12-08T11:23:56.921Z,17.60
2022-12-08T11:27:04.581Z,16.90
2022-12-08T11:30:14.507Z,15.20
2022-12-08T11:33:22.525Z,17.30
2022-12-08T11:36:29.889Z,15.60
2022-12-08T11:39:36.898Z,16.00
2022-12-08T11:42:44.553Z,14.20
2022-12-08T11:45:51.875Z,13.10
2022-12-08T11:49:05.588Z,11.80
2022-12-08T11:52:02.586Z,10.90
2022-12-08T11:55:09.768Z,9.10
2022-12-08T11:58:17.076Z,10.90
2022-12-08T12:01:24.551Z,10.50
2022-12-08T12:04:31.818Z,9.40
2022-12-08T12:07:39.286Z,8.80
2022-12-08T12:10:46.351Z,7.50
2022-12-08T12:13:54.242Z,6.30
2022-12-08T12:17:01.584Z,7.90
2022-12-08T12:20:08.672Z,9.10
2022-12-08T12:23:16.042Z,9.30
2022-12-08T12:26:23.160Z,10.20
2022-12-08T12:29:30.378Z,9.80
2022-12-08T12:32:37.605Z,9.30
2022-12-08T12:35:44.523Z,9.80
2022-12-08T12:38:52.185Z,9.40
2022-12-08T12:41:59.305Z,9.40
2022-12-08T12:45:06.210Z,9.30
2022-12-08T12:48:13.878Z,9.10
2022-12-08T12:51:21.245Z,9.60
2022-12-08T12:54:28.089Z,9.90
2022-12-08T12:57:35.464Z,10.30
2022-12-08T13:00:42.395Z,9.10
2022-12-08T13:03:49.879Z,9.50
2022-12-08T13:06:57.576Z,9.10
2022-12-08T13:10:05.083Z,8.40
2022-12-08T13:13:12.440Z,9.80
2022-12-08T13:16:21.266Z,9.10
2022-12-08T13:19:30.334Z,9.20
2022-12-08T13:22:37.445Z,10.30
2022-12-08T13:25:44.731Z,8.10
2022-12-08T13:28:52.152Z,10.50
2022-12-08T13:31:59.333Z,8.80
2022-12-08T13:35:06.456Z,9.60
2022-12-08T13:38:13.988Z,8.40
2022-12-08T13:41:21.401Z,9.60
2022-12-08T13:47:34.526Z,9.30
2022-12-08T13:57:05.539Z,10.10
2022-12-08T13:59:55.542Z,10.90
2022-12-08T14:03:03.163Z,9.90
2022-12-08T14:06:12.721Z,10.20
2022-12-08T14:09:20.498Z,9.10
2022-12-08T14:12:27.877Z,8.50
2022-12-08T14:15:38.099Z,9.80
2022-12-08T14:18:45.818Z,11.40
2022-12-08T14:21:52.914Z,11.60
2022-12-08T14:25:00.190Z,10.70
2022-12-08T14:28:07.624Z,12.00
2022-12-08T14:31:15.058Z,11.10
2022-12-08T14:34:22.223Z,9.60
2022-12-08T14:37:29.565Z,9.20
2022-12-08T14:40:36.748Z,8.90
2022-12-08T14:43:44.046Z,10.20
2022-12-08T14:46:51.322Z,10.10
2022-12-08T14:49:58.598Z,9.60
2022-12-08T14:53:05.739Z,11.20
2022-12-08T14:56:13.080Z,12.80
2022-12-08T14:59:20.804Z,11.90
2022-12-08T15:02:27.549Z,10.70
2022-12-08T15:05:35.219Z,12.10
2022-12-08T15:08:42.723Z,14.20
2022-12-08T15:11:49.533Z,13.50
2022-12-08T15:14:57.134Z,15.60
2022-12-08T15:18:04.907Z,12.60
2022-12-08T15:21:11.885Z,14.00
2022-12-08T15:24:19.666Z,15.30
2022-12-08T15:27:27.216Z,16.30
2022-12-08T15:30:34.019Z,18.50
2022-12-08T15:33:41.486Z,16.20
2022-12-08T15:36:48.547Z,19.40
2022-12-08T15:39:55.897Z,19.50
2022-12-08T15:43:03.362Z,18.20
2022-12-08T15:46:10.523Z,20.30
2022-12-08T15:49:17.703Z,24.30
2022-12-08T15:52:25.072Z,21.20
2022-12-08T15:55:38.460Z,28.90
2022-12-08T16:01:40.283Z,26.50
2022-12-08T16:05:33.428Z,27.30
2022-12-08T16:07:56.081Z,27.20
2022-12-08T16:11:40.831Z,28.40
2022-12-08T16:14:19.882Z,29.20
2022-12-08T16:17:02.983Z,33.90
2022-12-08T16:20:10.881Z,34.70
2022-12-08T16:23:34.531Z,35.10
2022-12-08T16:29:28.871Z,35.60
2022-12-08T16:32:36.872Z,37.90
2022-12-08T16:35:44.247Z,36.50
2022-12-08T16:38:51.618Z,48.70
2022-12-08T16:41:58.435Z,45.80
2022-12-08T16:45:06.376Z,46.10
2022-12-08T16:48:13.986Z,56.30
2022-12-08T16:51:26.520Z,59.10
2022-12-08T16:54:23.805Z,52.80
2022-12-08T16:57:30.688Z,60.60
2022-12-08T17:00:38.308Z,58.20
2022-12-08T17:04:01.338Z,58.90
2022-12-08T17:06:50.131Z,75.90
2022-12-08T17:09:57.692Z,54.10
2022-12-08T17:13:04.902Z,55.20
2022-12-08T17:16:12.045Z,66.60
2022-12-08T17:19:19.072Z,64.80
2022-12-08T17:22:26.259Z,78.80
2022-12-08T17:25:33.431Z,70.50
2022-12-08T17:29:08.988Z,81.50
2022-12-08T17:31:45.521Z,80.90
2022-12-08T17:34:52.846Z,76.20
2022-12-08T17:37:59.703Z,75.80
2022-12-08T17:41:07.316Z,62.80
2022-12-08T17:44:14.534Z,68.30
2022-12-08T17:47:21.513Z,68.60
2022-12-08T17:50:28.948Z,79.30
2022-12-08T17:53:37.614Z,78.90
2022-12-08T17:56:45.085Z,77.60
2022-12-08T17:59:52.489Z,75.20
2022-12-08T18:02:59.569Z,70.00
2022-12-08T18:06:07.263Z,76.50
2022-12-08T18:09:14.928Z,77.70
2022-12-08T18:12:23.802Z,85.00
2022-12-08T18:15:37.468Z,74.70
2022-12-08T18:18:34.844Z,90.70
2022-12-08T18:21:41.763Z,88.60
2022-12-08T18:24:49.222Z,98.20
2022-12-08T18:27:56.192Z,75.60
2022-12-08T18:31:03.501Z,75.50
2022-12-08T18:34:11.220Z,89.70
2022-12-08T18:37:18.408Z,79.30
2022-12-08T18:40:25.554Z,70.40
2022-12-08T18:43:32.655Z,86.80
2022-12-08T18:46:39.941Z,72.80
2022-12-08T18:49:47.309Z,70.70
2022-12-08T18:52:54.560Z,71.90
2022-12-08T18:56:01.958Z,60.30
2022-12-08T18:59:09.047Z,54.40
2022-12-08T19:02:16.271Z,70.30
2022-12-08T19:05:24.059Z,77.80
2022-12-08T19:08:31.762Z,63.70
2022-12-08T19:11:38.719Z,70.90
2022-12-08T19:14:46.272Z,63.50
2022-12-08T19:17:52.941Z,60.10
2022-12-08T19:21:00.347Z,61.80
2022-12-08T19:24:07.202Z,54.70
2022-12-08T19:27:14.024Z,56.50
2022-12-08T19:30:21.512Z,54.30
2022-12-08T19:33:28.495Z,61.30
2022-12-08T19:36:35.249Z,60.70
2022-12-08T19:39:42.673Z,69.30
2022-12-08T19:42:49.819Z,66.70
2022-12-08T19:45:56.730Z,63.20
2022-12-08T19:49:04.070Z,71.50
2022-12-08T19:52:10.935Z,77.00
2022-12-08T19:55:18.291Z,74.10
2022-12-08T19:58:25.775Z,63.30
2022-12-08T20:01:32.649Z,71.00
2022-12-08T20:04:40.205Z,78.80
2022-12-08T20:07:47.528Z,73.80
2022-12-08T20:10:54.778Z,76.60
2022-12-08T20:14:02.458Z,73.80
2022-12-08T20:17:09.686Z,86.80
2022-12-08T20:20:16.689Z,68.50
2022-12-08T20:23:23.873Z,55.40
2022-12-08T20:26:31.037Z,59.30
2022-12-08T20:29:38.286Z,64.20
2022-12-08T20:32:46.213Z,68.10
2022-12-08T20:35:58.733Z,61.70
2022-12-08T20:38:55.263Z,51.80
2022-12-08T20:42:02.408Z,58.00
2022-12-08T20:45:10.390Z,59.70
2022-12-08T20:48:09.852Z,53.30
2022-12-08T20:51:16.858Z,52.80
2022-12-08T20:54:23.898Z,57.00
2022-12-08T20:57:30.672Z,50.90
2022-12-08T21:00:38.427Z,52.70
2022-12-08T21:03:45.964Z,59.60
2022-12-08T21:06:53.078Z,54.80
2022-12-08T21:10:00.505Z,60.30
2022-12-08T21:13:07.884Z,51.60
2022-12-08T21:16:14.694Z,54.30
2022-12-08T21:19:22.045Z,51.70
2022-12-08T21:22:29.456Z,58.90
2022-12-08T21:25:36.624Z,75.90
2022-12-08T21:28:44.179Z,75.80
2022-12-08T21:31:51.497Z,70.50
2022-12-08T21:34:58.990Z,68.50
2022-12-08T21:38:06.208Z,72.50
2022-12-08T21:41:13.250Z,74.20
2022-12-08T21:44:20.581Z,65.20
2022-12-08T21:47:28.513Z,63.00
2022-12-08T21:50:35.842Z,59.50
2022-12-08T21:53:43.034Z,62.30
2022-12-08T21:56:50.148Z,57.40
2022-12-08T21:59:57.978Z,60.10
2022-12-08T22:03:05.572Z,59.40
2022-12-08T22:06:13.154Z,64.20
2022-12-08T22:09:21.066Z,66.60
2022-12-08T22:12:28.454Z,60.40
2022-12-08T22:15:35.721Z,56.80
2022-12-08T22:18:43.137Z,59.70
2022-12-08T22:21:50.016Z,72.00
2022-12-08T22:24:57.693Z,63.20
2022-12-08T22:28:04.783Z,53.40
2022-12-08T22:31:12.111Z,55.00
2022-12-08T22:34:19.696Z,55.50
2022-12-08T22:37:26.733Z,54.50
2022-12-08T22:40:33.994Z,49.70
2022-12-08T22:43:41.483Z,62.00
2022-12-08T22:46:48.567Z,55.50
2022-12-08T22:49:55.947Z,52.60
2022-12-08T22:53:03.368Z,55.00
2022-12-08T22:56:10.178Z,55.70
2022-12-08T22:59:17.802Z,50.40
2022-12-08T23:02:25.468Z,57.40
2022-12-08T23:05:32.415Z,54.70
2022-12-08T23:08:39.929Z,47.60
2022-12-08T23:11:46.736Z,50.20
2022-12-08T23:14:54.047Z,51.50
2022-12-08T23:18:01.386Z,57.10
2022-12-08T23:21:08.732Z,53.70
2022-12-08T23:24:15.910Z,53.30
2022-12-08T23:27:23.353Z,64.50
2022-12-08T23:30:30.390Z,60.30
2022-12-08T23:33:37.424Z,55.10
2022-12-08T23:36:44.891Z,67.30
2022-12-08T23:39:51.856Z,59.70
2022-12-08T23:42:59.173Z,60.20
2022-12-08T23:46:06.537Z,62.90
2022-12-08T23:49:14.308Z,54.10
2022-12-08T23:52:21.533Z,52.90
2022-12-08T23:55:28.452Z,57.20
2022-12-08T23:58:35.772Z,54.90
